Time;durP1;ratioP1;P1;durP2;ratioP2;P2;SDS_P1;SDS_P2;PMS_P1;PMS_P2;Temp;Humidity;BMP_temperature;BMP_pressure;BME280_temperature;BME280_humidity;BME280_pressure;Samples;Min_cycle;Max_cycle;Signal;HPM_P1;HPM_P2
2023/05/31 00:01:25;;;;;;;2.80;1.88;;;;;;;;;;4974322;28;20058;-79
2023/05/31 00:03:51;;;;;;;4.50;1.80;;;;;;;;;;4974479;28;20029;-78
2023/05/31 00:06:17;;;;;;;7.00;2.33;;;;;;;;;;4975046;28;20031;-79
2023/05/31 00:08:43;;;;;;;3.47;2.17;;;12.70;99.90;;;;;;4973544;28;20202;-77
2023/05/31 00:11:08;;;;;;;3.42;1.90;;;12.80;99.90;;;;;;4955269;28;20121;-79
2023/05/31 00:13:34;;;;;;;6.07;2.17;;;12.80;99.90;;;;;;4956332;28;20030;-78
2023/05/31 00:16:00;;;;;;;3.13;2.25;;;12.90;99.90;;;;;;4973908;28;20030;-78
2023/05/31 00:18:26;;;;;;;2.13;1.70;;;12.80;99.90;;;;;;4956219;28;20033;-79
2023/05/31 00:20:51;;;;;;;7.43;2.42;;;12.80;99.90;;;;;;4954276;28;20364;-78
2023/05/31 00:23:17;;;;;;;5.28;2.78;;;12.80;99.90;;;;;;4954544;28;20031;-78
2023/05/31 00:25:43;;;;;;;3.30;2.10;;;12.70;99.90;;;;;;4969867;28;20022;-78
2023/05/31 00:28:08;;;;;;;4.05;2.10;;;12.70;99.90;;;;;;4972363;28;20078;-78
2023/05/31 00:30:34;;;;;;;3.58;2.17;;;12.80;99.90;;;;;;4954060;28;20031;-78
2023/05/31 00:32:59;;;;;;;4.47;2.47;;;12.80;99.90;;;;;;4970486;28;20030;-78
2023/05/31 00:35:25;;;;;;;4.57;2.45;;;12.80;99.90;;;;;;4954558;28;20106;-78
2023/05/31 00:37:51;;;;;;;2.75;2.35;;;12.80;99.90;;;;;;4955087;28;20552;-78
2023/05/31 00:40:16;;;;;;;4.40;1.67;;;12.70;99.90;;;;;;4973090;28;20058;-79
2023/05/31 00:42:42;;;;;;;5.07;1.73;;;12.80;99.90;;;;;;4973164;28;20041;-78
2023/05/31 00:45:08;;;;;;;7.40;2.88;;;12.70;99.90;;;;;;4973494;28;20048;-78
2023/05/31 00:47:35;;;;;;;3.90;1.92;;;12.80;99.90;;;;;;4971938;28;20086;-78
2023/05/31 00:50:01;;;;;;;3.13;1.80;;;;;;;;;;4955857;28;20095;-78
2023/05/31 00:52:28;;;;;;;4.60;2.00;;;12.70;99.90;;;;;;4973239;28;20477;-78
2023/05/31 00:54:55;;;;;;;5.90;2.28;;;;;;;;;;4971833;28;20034;-78
2023/05/31 00:57:20;;;;;;;10.15;2.80;;;12.50;99.90;;;;;;4972015;28;20476;-78
2023/05/31 00:59:46;;;;;;;4.78;1.77;;;12.50;99.90;;;;;;4955640;28;20089;-78
2023/05/31 01:02:14;;;;;;;2.00;1.67;;;12.30;99.90;;;;;;4972994;28;20041;-78
2023/05/31 01:04:39;;;;;;;4.05;1.80;;;12.20;99.90;;;;;;4971712;28;20089;-78
2023/05/31 01:07:08;;;;;;;1.98;1.73;;;12.20;99.90;;;;;;4971851;28;20472;-78
2023/05/31 01:09:35;;;;;;;3.45;1.77;;;12.10;99.90;;;;;;4955401;28;20026;-78
2023/05/31 01:12:21;;;;;;;2.05;1.40;;;12.10;99.90;;;;;;4972167;28;20170;-79
2023/05/31 01:15:02;;;;;;;7.57;2.83;;;12.00;99.90;;;;;;4971509;28;20019;-78
2023/05/31 01:17:48;;;;;;;6.10;1.83;;;12.10;99.90;;;;;;4971513;28;20033;-78
2023/05/31 01:20:17;;;;;;;3.03;1.48;;;12.20;99.90;;;;;;4971749;28;20102;-78
2023/05/31 01:23:05;;;;;;;3.67;1.95;;;12.20;99.90;;;;;;4971237;28;20031;-78
2023/05/31 01:25:58;;;;;;;6.43;1.80;;;12.20;99.90;;;;;;4972769;28;20242;-78
2023/05/31 01:28:29;;;;;;;5.93;1.77;;;12.20;99.90;;;;;;4972831;28;20154;-78
2023/05/31 01:31:01;;;;;;;2.20;1.77;;;12.10;99.90;;;;;;4971557;28;20023;-78
2023/05/31 01:33:28;;;;;;;3.35;1.60;;;12.00;99.90;;;;;;4972803;28;20031;-78
2023/05/31 01:35:54;;;;;;;7.35;1.70;;;;;;;;;;4955431;28;20062;-78
2023/05/31 01:38:20;;;;;;;3.30;1.40;;;;;;;;;;4971401;28;20033;-78
2023/05/31 01:40:46;;;;;;;4.15;2.05;;;;;;;;;;4971580;28;20023;-79
2023/05/31 01:43:12;;;;;;;7.25;2.10;;;12.10;99.90;;;;;;4972786;28;20083;-78
2023/05/31 01:45:39;;;;;;;2.67;2.00;;;;;;;;;;4971446;28;20019;-79
2023/05/31 01:48:07;;;;;;;4.15;1.95;;;12.20;99.90;;;;;;4971044;28;20122;-78
2023/05/31 01:50:36;;;;;;;3.80;1.80;;;12.10;99.90;;;;;;4971322;28;20027;-78
2023/05/31 01:53:06;;;;;;;4.55;2.20;;;12.10;99.90;;;;;;4971207;28;20023;-78
2023/05/31 01:55:32;;;;;;;5.57;1.40;;;12.00;99.90;;;;;;4972157;28;20171;-78
2023/05/31 01:57:59;;;;;;;2.67;1.42;;;12.10;99.90;;;;;;4955105;28;20031;-78
2023/05/31 02:00:25;;;;;;;5.88;1.60;;;12.10;99.90;;;;;;4971367;28;20077;-78
2023/05/31 02:02:51;;;;;;;2.67;1.60;;;12.20;99.90;;;;;;4971230;28;20396;-77
2023/05/31 02:05:17;;;;;;;5.53;2.10;;;12.30;99.40;;;;;;4954938;28;20453;-78
2023/05/31 02:07:45;;;;;;;3.67;1.42;;;12.30;99.10;;;;;;4972373;28;20030;-78
2023/05/31 02:10:12;;;;;;;1.92;1.33;;;12.40;98.60;;;;;;4954265;28;20033;-78
2023/05/31 02:12:38;;;;;;;4.35;1.85;;;;;;;;;;4970817;28;20089;-79
2023/05/31 02:15:10;;;;;;;3.95;1.77;;;12.20;97.40;;;;;;4971029;28;20082;-78
2023/05/31 02:17:40;;;;;;;7.55;1.30;;;12.50;97.00;;;;;;4970682;28;20038;-79
2023/05/31 02:20:10;;;;;;;4.32;1.83;;;12.40;97.60;;;;;;4970844;28;20500;-78
2023/05/31 02:22:35;;;;;;;;;;;12.50;97.90;;;;;;4972658;28;20279;-79
2023/05/31 02:25:01;;;;;;;2.50;1.85;;;12.30;97.70;;;;;;4970284;28;19996;-78
2023/05/31 02:27:29;;;;;;;4.25;1.90;;;12.20;99.10;;;;;;4972563;28;20027;-79
2023/05/31 02:29:55;;;;;;;4.93;2.03;;;;;;;;;;4971728;28;20026;-78
2023/05/31 02:32:21;;;;;;;3.53;1.27;;;;;;;;;;4970324;28;20105;-77
2023/05/31 02:34:47;;;;;;;4.28;1.92;;;;;;;;;;4971912;28;20495;-78
2023/05/31 02:37:13;;;;;;;3.55;1.50;;;;;;;;;;4970838;28;20022;-78
2023/05/31 02:39:39;;;;;;;4.15;1.67;;;;;;;;;;4971507;28;20034;-79
2023/05/31 02:42:05;;;;;;;2.47;1.38;;;12.10;98.70;;;;;;4970460;28;20395;-78
2023/05/31 02:44:31;;;;;;;5.18;1.75;;;;;;;;;;4971909;28;20050;-78
2023/05/31 02:46:57;;;;;;;3.08;1.55;;;12.00;99.90;;;;;;4970592;28;20035;-78
2023/05/31 02:49:22;;;;;;;4.00;1.80;;;11.90;99.80;;;;;;4970369;28;20027;-79
2023/05/31 02:51:48;;;;;;;2.95;2.08;;;11.90;99.90;;;;;;4954071;28;20023;-78
2023/05/31 02:54:13;;;;;;;3.45;1.20;;;11.90;99.90;;;;;;4957578;28;20424;-78
2023/05/31 02:56:39;;;;;;;2.03;1.50;;;11.70;99.90;;;;;;4973923;28;20085;-78
2023/05/31 02:59:05;;;;;;;3.55;1.48;;;11.60;99.90;;;;;;4974309;28;20023;-78
2023/05/31 03:01:30;;;;;;;5.70;1.58;;;11.60;99.90;;;;;;4957665;28;20456;-78
2023/05/31 03:03:56;;;;;;;2.97;1.65;;;11.60;99.90;;;;;;4975139;28;20023;-78
2023/05/31 03:06:23;;;;;;;3.70;1.58;;;;;;;;;;4973845;28;20065;-79
2023/05/31 03:08:49;;;;;;;3.22;1.67;;;;;;;;;;4957638;28;20069;-78
2023/05/31 03:11:15;;;;;;;3.83;1.90;;;;;;;;;;4957563;28;20038;-78
2023/05/31 03:13:41;;;;;;;3.65;1.58;;;;;;;;;;4957847;28;20027;-78
2023/05/31 03:16:07;;;;;;;3.08;1.77;;;;;;;;;;4958067;28;20027;-78
2023/05/31 03:18:33;;;;;;;5.05;1.52;;;;;;;;;;4975361;28;20494;-77
2023/05/31 03:20:59;;;;;;;3.92;1.70;;;;;;;;;;4975054;28;20030;-78
2023/05/31 03:23:25;;;;;;;4.18;2.10;;;;;;;;;;4957483;28;20031;-78
2023/05/31 03:25:51;;;;;;;9.57;1.85;;;;;;;;;;4957869;28;20022;-77
2023/05/31 03:28:17;;;;;;;6.55;1.42;;;;;;;;;;4976396;28;20229;-78
2023/05/31 03:30:43;;;;;;;1.35;1.15;;;;;;;;;;4962792;28;20015;-79
2023/05/31 03:33:10;;;;;;;4.15;1.77;;;;;;;;;;4974328;28;20042;-78
2023/05/31 03:35:35;;;;;;;4.90;1.92;;;11.00;99.90;;;;;;4960348;28;20626;-78
2023/05/31 03:38:01;;;;;;;3.90;1.20;;;10.90;99.90;;;;;;4957940;28;20207;-77
2023/05/31 03:40:27;;;;;;;7.30;2.25;;;;;;;;;;4956785;28;20065;-78
2023/05/31 03:42:53;;;;;;;8.07;1.52;;;;;;;;;;4974231;28;20392;-78
2023/05/31 03:45:19;;;;;;;4.78;1.85;;;;;;;;;;4976803;28;20019;-79
2023/05/31 03:47:45;;;;;;;3.90;1.65;;;;;;;;;;4964311;28;20026;-78
2023/05/31 03:50:11;;;;;;;4.88;1.52;;;;;;;;;;4975942;28;20392;-78
2023/05/31 03:52:37;;;;;;;3.92;2.28;;;10.60;99.90;;;;;;4975196;28;20476;-79
2023/05/31 03:55:03;;;;;;;7.90;1.77;;;;;;;;;;4975186;28;20025;-78
2023/05/31 03:57:29;;;;;;;2.28;1.30;;;10.40;99.90;;;;;;4956546;28;20034;-78
2023/05/31 03:59:55;;;;;;;3.15;1.52;;;;;;;;;;4973657;28;20023;-78
2023/05/31 04:02:21;;;;;;;1.73;1.63;;;;;;;;;;4982865;28;20039;-78
2023/05/31 04:04:47;;;;;;;5.40;1.27;;;10.50;99.90;;;;;;4976846;28;20023;-78
2023/05/31 04:07:13;;;;;;;7.70;2.47;;;;;;;;;;4963028;28;20054;-78
2023/05/31 04:09:39;;;;;;;3.00;1.50;;;;;;;;;;4957427;28;20476;-78
2023/05/31 04:12:05;;;;;;;4.30;1.70;;;10.50;99.90;;;;;;4973570;28;20050;-78
2023/05/31 04:14:31;;;;;;;6.07;1.60;;;;;;;;;;4955260;28;20019;-77
2023/05/31 04:16:57;;;;;;;4.45;1.88;;;10.70;99.90;;;;;;4973104;28;20113;-78
2023/05/31 04:19:23;;;;;;;2.50;1.48;;;10.70;99.90;;;;;;4956182;28;20470;-78
2023/05/31 04:21:48;;;;;;;4.22;1.92;;;10.80;99.90;;;;;;4956183;28;20042;-78
2023/05/31 04:24:14;;;;;;;5.57;2.03;;;10.90;99.90;;;;;;4956087;28;20475;-78
2023/05/31 04:26:40;;;;;;;2.63;2.00;;;10.70;99.90;;;;;;4974181;28;20105;-78
2023/05/31 04:29:05;;;;;;;3.33;1.13;;;10.90;99.90;;;;;;4974209;28;20026;-78
2023/05/31 04:31:35;;;;;;;2.65;1.17;;;11.10;99.90;;;;;;4956962;28;20375;-78
2023/05/31 04:34:02;;;;;;;;;;;11.20;99.90;;;;;;4957229;28;20036;-78
2023/05/31 04:36:28;;;;;;;2.53;1.35;;;;;;;;;;4956131;28;19953;-78
2023/05/31 04:38:55;;;;;;;2.65;2.28;;;;;;;;;;4956039;28;20125;-78
2023/05/31 04:41:25;;;;;;;3.30;1.48;;;11.80;99.90;;;;;;4973116;28;20578;-78
2023/05/31 04:43:52;;;;;;;4.50;1.50;;;11.90;99.90;;;;;;4953252;29;20147;-78
2023/05/31 04:46:19;;;;;;;3.60;1.67;;;12.20;99.90;;;;;;4969083;28;20283;-78
2023/05/31 04:48:48;;;;;;;2.67;1.70;;;12.50;99.90;;;;;;4954286;28;20481;-79
2023/05/31 04:51:13;;;;;;;2.90;1.50;;;12.60;99.90;;;;;;4954120;29;20027;-79
2023/05/31 04:53:39;;;;;;;3.05;1.75;;;12.80;99.90;;;;;;4952858;29;20031;-78
2023/05/31 04:56:07;;;;;;;3.92;2.10;;;12.80;99.90;;;;;;4952211;29;20082;-78
2023/05/31 04:58:33;;;;;;;5.82;2.40;;;12.80;99.70;;;;;;4953956;28;20023;-78
2023/05/31 05:01:02;;;;;;;5.15;1.60;;;12.80;98.60;;;;;;4953769;29;20110;-78
2023/05/31 05:03:28;;;;;;;4.50;2.10;;;12.80;98.80;;;;;;4952587;29;20035;-78
2023/05/31 05:05:56;;;;;;;4.05;1.50;;;12.90;99.90;;;;;;4952693;28;20282;-78
2023/05/31 05:08:21;;;;;;;4.10;1.70;;;12.90;99.80;;;;;;4953890;28;20110;-78
2023/05/31 05:10:48;;;;;;;2.28;1.40;;;12.90;99.90;;;;;;4953501;29;20019;-78
2023/05/31 05:13:16;;;;;;;1.88;1.50;;;12.80;99.00;;;;;;4968339;28;20555;-78
2023/05/31 05:15:43;;;;;;;3.20;1.25;;;;;;;;;;4968449;28;20417;-78
2023/05/31 05:18:09;;;;;;;3.20;1.48;;;12.80;99.30;;;;;;4968698;28;20034;-78
2023/05/31 05:20:35;;;;;;;4.72;2.33;;;12.60;97.70;;;;;;4952561;29;20035;-78
2023/05/31 05:23:06;;;;;;;3.22;1.42;;;;;;;;;;4958339;28;20184;-78
2023/05/31 05:25:33;;;;;;;12.70;2.55;;;;;;;;;;4962347;28;20015;-78
2023/05/31 05:27:58;;;;;;;3.08;0.95;;;12.90;98.70;;;;;;4971637;28;20094;-77
2023/05/31 05:30:25;;;;;;;9.05;1.50;;;13.00;98.70;;;;;;4953848;29;20481;-79
2023/05/31 05:32:51;;;;;;;4.05;2.22;;;13.00;98.00;;;;;;4959940;28;20473;-80
2023/05/31 05:35:16;;;;;;;4.30;1.65;;;13.10;96.70;;;;;;4962200;29;20031;-78
2023/05/31 05:37:42;;;;;;;6.38;1.30;;;;;;;;;;4962539;29;20026;-78
2023/05/31 05:40:09;;;;;;;3.15;1.65;;;13.20;95.70;;;;;;4963141;29;20031;-78
2023/05/31 05:42:36;;;;;;;1.55;1.30;;;;;;;;;;4945157;29;20346;-78
2023/05/31 05:45:04;;;;;;;6.90;1.88;;;13.30;97.90;;;;;;4952512;29;20027;-78
2023/05/31 05:47:30;;;;;;;2.60;1.30;;;13.30;97.00;;;;;;4953567;29;20067;-78
2023/05/31 05:49:56;;;;;;;3.78;2.05;;;;;;;;;;4939555;29;20023;-78
2023/05/31 05:52:21;;;;;;;2.70;1.60;;;13.40;96.40;;;;;;4954578;29;20078;-78
2023/05/31 05:54:47;;;;;;;2.95;1.58;;;;;;;;;;4955295;29;20027;-79
2023/05/31 05:57:13;;;;;;;3.22;1.42;;;;;;;;;;4956064;29;20038;-78
2023/05/31 05:59:41;;;;;;;5.68;2.08;;;;;;;;;;4961974;29;20023;-79
2023/05/31 06:02:07;;;;;;;2.83;1.50;;;;;;;;;;4960438;29;20235;-78
2023/05/31 06:04:33;;;;;;;2.05;1.38;;;;;;;;;;4964487;28;20023;-78
2023/05/31 06:06:59;;;;;;;2.97;1.80;;;;;;;;;;4965428;29;20316;-79
2023/05/31 06:09:25;;;;;;;3.67;2.28;;;;;;;;;;4963728;29;20103;-79
2023/05/31 06:11:51;;;;;;;3.83;1.67;;;;;;;;;;4962865;29;20027;-78
2023/05/31 06:14:17;;;;;;;4.03;1.60;;;;;;;;;;4962009;29;20034;-78
2023/05/31 06:16:44;;;;;;;6.55;1.70;;;14.60;92.60;;;;;;4961766;29;20019;-80
2023/05/31 06:19:10;;;;;;;3.08;1.80;;;;;;;;;;4944289;29;20372;-78
2023/05/31 06:21:35;;;;;;;3.85;1.67;;;14.70;91.70;;;;;;4959317;29;20319;-78
2023/05/31 06:24:04;;;;;;;3.63;1.60;;;14.70;92.20;;;;;;4962710;29;20031;-78
2023/05/31 06:26:30;;;;;;;3.27;1.60;;;;;;;;;;4968729;28;20029;-78
2023/05/31 06:29:00;;;;;;;6.43;2.00;;;14.60;91.00;;;;;;4961814;28;20428;-78
2023/05/31 06:31:26;;;;;;;8.48;1.70;;;;;;;;;;4984943;28;20023;-78
2023/05/31 06:33:52;;;;;;;4.55;1.85;;;;;;;;;;4962749;28;20114;-78
2023/05/31 06:36:17;;;;;;;6.13;2.42;;;15.60;91.10;;;;;;4963523;28;20315;-78
2023/05/31 06:38:43;;;;;;;8.10;2.42;;;15.60;91.30;;;;;;4963229;28;20039;-78
2023/05/31 06:41:09;;;;;;;5.32;1.65;;;17.50;76.20;;;;;;4964709;28;20031;-77
2023/05/31 06:43:35;;;;;;;5.18;2.17;;;17.50;76.80;;;;;;4962901;28;20046;-78
2023/05/31 06:46:01;;;;;;;6.47;2.05;;;17.90;75.40;;;;;;4980919;28;20022;-79
2023/05/31 06:48:27;;;;;;;5.90;1.83;;;;;;;;;;4962982;28;20031;-78
2023/05/31 06:50:52;;;;;;;2.35;1.17;;;18.20;70.00;;;;;;4981490;28;20079;-77
2023/05/31 06:53:18;;;;;;;4.00;1.38;;;19.30;69.10;;;;;;4986768;28;20031;-78
2023/05/31 06:55:44;;;;;;;3.17;1.88;;;19.20;66.30;;;;;;4983657;28;20073;-79
2023/05/31 06:58:15;;;;;;;4.88;1.73;;;19.00;67.00;;;;;;4981324;28;20031;-78
2023/05/31 07:00:40;;;;;;;3.08;1.42;;;19.10;67.20;;;;;;4981305;28;20126;-79
2023/05/31 07:03:06;;;;;;;2.60;1.90;;;;;;;;;;4989026;28;20053;-78
2023/05/31 07:05:32;;;;;;;3.03;1.83;;;;;;;;;;4993286;28;20015;-79
2023/05/31 07:07:58;;;;;;;6.57;1.50;;;;;;;;;;4992974;28;20357;-78
2023/05/31 07:10:24;;;;;;;3.88;2.13;;;18.90;66.70;;;;;;4976345;28;20027;-78
2023/05/31 07:12:50;;;;;;;5.05;2.17;;;19.10;66.40;;;;;;4983753;28;20034;-78
2023/05/31 07:15:16;;;;;;;6.25;2.10;;;19.20;66.10;;;;;;4973066;28;20078;-80
2023/05/31 07:17:41;;;;;;;3.72;2.13;;;19.90;64.70;;;;;;4975442;28;20003;-78
2023/05/31 07:20:08;;;;;;;4.47;1.98;;;19.90;65.40;;;;;;4978087;28;20017;-78
2023/05/31 07:22:34;;;;;;;4.00;1.80;;;;;;;;;;4993549;28;20023;-78
2023/05/31 07:25:00;;;;;;;3.30;2.05;;;20.00;63.80;;;;;;4974516;28;20003;-79
2023/05/31 07:27:26;;;;;;;4.18;2.53;;;;;;;;;;4976807;28;20022;-79
2023/05/31 07:29:52;;;;;;;6.10;1.67;;;;;;;;;;4974198;28;20026;-78
2023/05/31 07:32:18;;;;;;;2.97;1.85;;;;;;;;;;4967221;28;20027;-78
2023/05/31 07:34:43;;;;;;;6.15;2.00;;;20.20;65.10;;;;;;4964079;28;20219;-78
2023/05/31 07:37:09;;;;;;;5.47;1.58;;;20.10;65.50;;;;;;4984415;28;20024;-78
2023/05/31 07:39:35;;;;;;;5.07;1.58;;;20.30;65.00;;;;;;4962561;28;20026;-79
2023/05/31 07:42:01;;;;;;;2.63;1.77;;;20.80;63.50;;;;;;4967379;28;20043;-78
2023/05/31 07:44:27;;;;;;;3.20;1.75;;;20.90;63.30;;;;;;4984755;28;20049;-79
2023/05/31 07:46:52;;;;;;;4.05;1.90;;;21.40;62.30;;;;;;4988192;28;20034;-78
2023/05/31 07:49:18;;;;;;;2.75;1.55;;;21.80;61.80;;;;;;4953465;28;20027;-78
2023/05/31 07:51:44;;;;;;;6.88;1.77;;;21.60;60.10;;;;;;4956480;28;20042;-78
2023/05/31 07:54:09;;;;;;;5.00;2.65;;;21.20;61.00;;;;;;4957624;28;20026;-79
2023/05/31 07:56:35;;;;;;;8.75;2.22;;;20.80;61.20;;;;;;4974630;28;20026;-77
2023/05/31 07:59:01;;;;;;;3.65;1.83;;;20.30;63.20;;;;;;4954669;28;20161;-80
2023/05/31 08:01:28;;;;;;;7.00;2.08;;;;;;;;;;4977461;28;20196;-79
2023/05/31 08:03:54;;;;;;;5.55;2.00;;;20.40;63.40;;;;;;4989204;28;20086;-81
2023/05/31 08:06:20;;;;;;;4.57;2.20;;;20.90;62.50;;;;;;4978602;28;20030;-78
2023/05/31 08:08:46;;;;;;;4.38;1.73;;;20.70;61.90;;;;;;4971996;28;20039;-78
2023/05/31 08:11:12;;;;;;;3.72;1.60;;;20.80;62.20;;;;;;4963119;28;20029;-79
2023/05/31 08:13:39;;;;;;;4.22;2.35;;;20.80;63.30;;;;;;4956262;28;20027;-78
2023/05/31 08:16:05;;;;;;;3.58;1.77;;;20.90;61.50;;;;;;4973854;28;20109;-79
2023/05/31 08:18:31;;;;;;;6.35;2.05;;;;;;;;;;4955690;28;20113;-80
2023/05/31 08:20:57;;;;;;;6.88;2.15;;;21.50;60.40;;;;;;4978566;28;20497;-78
2023/05/31 08:23:22;;;;;;;13.98;2.50;;;22.40;60.90;;;;;;4955398;28;20094;-79
2023/05/31 08:25:48;;;;;;;5.88;2.38;;;22.10;60.00;;;;;;4985204;28;20030;-80
2023/05/31 08:28:14;;;;;;;41.40;5.82;;;21.70;59.80;;;;;;4989465;28;20116;-79
2023/05/31 08:30:40;;;;;;;2.85;2.03;;;;;;;;;;4970271;28;20035;-77
2023/05/31 08:33:07;;;;;;;5.15;2.30;;;21.20;59.80;;;;;;4984073;28;20074;-78
2023/05/31 08:35:32;;;;;;;9.43;2.72;;;21.00;62.50;;;;;;4962271;28;20018;-79
2023/05/31 08:37:58;;;;;;;16.40;2.70;;;;;;;;;;4977303;28;20027;-78
2023/05/31 08:40:24;;;;;;;5.65;2.28;;;21.30;61.90;;;;;;4974860;28;20023;-79
2023/05/31 08:43:20;;;;;;;4.65;2.22;;;21.60;60.40;;;;;;4975170;28;20051;-83
2023/05/31 08:45:46;;;;;;;3.88;2.40;;;21.70;59.30;;;;;;4958031;28;20035;-79
2023/05/31 08:48:55;;;;;;;7.18;2.10;;;21.90;58.70;;;;;;4973182;28;20177;-78
2023/05/31 08:51:24;;;;;;;10.05;2.72;;;21.90;59.10;;;;;;4894498;29;20032;-78
2023/05/31 08:53:51;;;;;;;3.43;1.80;;;22.30;58.80;;;;;;4959632;28;20054;-80
2023/05/31 08:56:18;;;;;;;5.72;2.40;;;22.30;58.40;;;;;;4959716;28;20293;-80
2023/05/31 08:58:50;;;;;;;5.75;2.25;;;22.30;58.10;;;;;;4973419;28;20058;-80
2023/05/31 09:01:18;;;;;;;6.55;2.80;;;22.40;58.30;;;;;;4973902;28;20051;-79
2023/05/31 09:03:45;;;;;;;5.78;2.70;;;22.40;56.70;;;;;;4976716;28;20472;-81
2023/05/31 09:06:12;;;;;;;5.43;1.92;;;22.40;57.90;;;;;;4954575;28;20117;-78
2023/05/31 09:08:38;;;;;;;5.50;2.80;;;22.00;58.30;;;;;;4972201;28;20472;-78
2023/05/31 09:11:05;;;;;;;4.30;2.25;;;22.10;59.30;;;;;;4954720;28;20077;-78
2023/05/31 09:13:31;;;;;;;3.80;2.17;;;22.00;60.00;;;;;;4974077;28;20499;-78
2023/05/31 09:15:58;;;;;;;5.85;1.92;;;22.10;59.00;;;;;;4956131;28;20099;-78
2023/05/31 09:18:29;;;;;;;6.57;1.95;;;22.30;59.50;;;;;;4973182;28;20118;-78
2023/05/31 09:20:55;;;;;;;6.57;2.47;;;22.20;60.10;;;;;;4972433;28;20062;-78
2023/05/31 09:23:21;;;;;;;3.78;2.40;;;22.80;58.80;;;;;;4970121;28;20049;-78
2023/05/31 09:25:49;;;;;;;6.22;2.08;;;22.30;58.70;;;;;;4955075;28;20113;-78
2023/05/31 09:28:16;;;;;;;4.13;1.80;;;22.10;58.80;;;;;;4972744;28;20107;-78
2023/05/31 09:30:42;;;;;;;5.60;2.17;;;22.20;59.40;;;;;;4971247;28;20034;-78
2023/05/31 09:33:08;;;;;;;7.43;2.65;;;;;;;;;;4972068;28;20019;-78
2023/05/31 09:35:34;;;;;;;5.57;2.47;;;21.90;59.60;;;;;;4970459;28;20023;-78
2023/05/31 09:38:07;;;;;;;6.82;2.25;;;22.50;57.90;;;;;;4954200;28;20033;-79
2023/05/31 09:40:33;;;;;;;4.57;2.10;;;22.30;58.70;;;;;;4971460;28;20026;-78
2023/05/31 09:43:00;;;;;;;4.85;1.98;;;;;;;;;;4954176;28;20522;-78
2023/05/31 09:45:27;;;;;;;6.90;2.42;;;22.80;58.30;;;;;;4970754;28;20086;-78
2023/05/31 09:47:53;;;;;;;5.65;2.10;;;23.00;56.20;;;;;;4973940;28;20299;-78
2023/05/31 09:50:22;;;;;;;3.28;2.42;;;23.00;57.30;;;;;;4944636;29;20029;-78
2023/05/31 09:52:54;;;;;;;3.67;2.58;;;23.20;56.80;;;;;;4955335;28;20027;-78
2023/05/31 09:55:20;;;;;;;6.22;1.73;;;23.70;55.30;;;;;;4965238;28;20094;-78
2023/05/31 09:57:46;;;;;;;4.75;1.92;;;24.30;55.50;;;;;;4974580;28;20054;-78
2023/05/31 10:00:20;;;;;;;7.95;2.25;;;24.80;54.30;;;;;;4980631;28;20089;-78
2023/05/31 10:02:51;;;;;;;5.38;3.33;;;24.30;54.30;;;;;;4960440;28;20279;-78
2023/05/31 10:05:17;;;;;;;4.28;2.15;;;24.50;54.80;;;;;;4962580;28;20019;-77
2023/05/31 10:07:48;;;;;;;4.85;2.45;;;24.40;54.30;;;;;;4963974;28;20077;-78
2023/05/31 10:10:14;;;;;;;3.40;2.42;;;24.90;53.50;;;;;;4962962;28;20019;-79
2023/05/31 10:12:58;;;;;;;3.63;1.83;;;24.30;54.30;;;;;;4964043;28;20215;-78
2023/05/31 10:15:25;;;;;;;4.07;2.42;;;24.70;53.80;;;;;;4962468;28;20023;-78
2023/05/31 10:18:16;;;;;;;4.93;2.58;;;24.70;53.10;;;;;;4976318;28;20053;-76
2023/05/31 10:20:46;;;;;;;4.93;2.35;;;24.20;53.80;;;;;;4981499;28;20034;-77
2023/05/31 10:23:20;;;;;;;8.50;2.33;;;24.60;54.50;;;;;;4980239;28;20039;-78
2023/05/31 10:25:53;;;;;;;3.13;2.17;;;25.30;52.50;;;;;;4979516;28;20023;-77
2023/05/31 10:28:28;;;;;;;4.85;2.05;;;25.30;52.80;;;;;;4977844;28;20030;-77
2023/05/31 10:30:56;;;;;;;3.50;2.38;;;25.00;52.90;;;;;;4979604;28;20019;-76
2023/05/31 10:33:26;;;;;;;4.20;2.47;;;25.10;52.10;;;;;;4979583;28;20011;-76
2023/05/31 10:35:52;;;;;;;5.18;1.90;;;;;;;;;;4980781;28;20019;-77
2023/05/31 10:38:24;;;;;;;4.18;2.33;;;26.40;52.00;;;;;;4979827;28;20112;-77
2023/05/31 10:40:57;;;;;;;5.18;2.50;;;26.90;49.70;;;;;;4979886;28;20023;-78
2023/05/31 10:43:32;;;;;;;5.13;2.28;;;26.90;50.80;;;;;;4963100;28;20403;-78
2023/05/31 10:46:18;;;;;;;6.13;1.92;;;26.40;51.30;;;;;;4965792;28;20034;-77
2023/05/31 10:49:05;;;;;;;13.57;2.67;;;26.10;53.20;;;;;;4980693;28;20029;-76
2023/05/31 10:51:45;;;;;;;3.63;2.00;;;26.70;50.90;;;;;;4962006;28;20094;-78
2023/05/31 10:54:21;;;;;;;4.15;1.73;;;27.30;51.20;;;;;;4945570;29;20298;-77
2023/05/31 10:56:57;;;;;;;4.95;2.22;;;27.00;49.80;;;;;;4961552;29;20105;-77
2023/05/31 10:59:26;;;;;;;6.00;2.28;;;26.40;49.80;;;;;;4961119;29;20023;-76
2023/05/31 11:01:52;;;;;;;4.73;1.87;;;26.60;50.90;;;;;;4977347;28;20054;-80
2023/05/31 11:04:24;;;;;;;9.13;2.72;;;26.60;51.80;;;;;;4981496;28;20269;-77
2023/05/31 11:07:14;;;;;;;5.60;2.65;;;27.30;50.70;;;;;;4963746;28;20303;-78
2023/05/31 11:09:41;;;;;;;7.15;2.25;;;27.60;48.40;;;;;;4980958;28;20045;-78
2023/05/31 11:12:10;;;;;;;7.60;2.53;;;27.50;48.70;;;;;;4980624;28;20091;-78
2023/05/31 11:14:37;;;;;;;6.03;2.67;;;27.10;49.20;;;;;;4982166;28;20023;-78
2023/05/31 11:17:04;;;;;;;7.38;2.50;;;27.70;49.70;;;;;;4981261;28;20046;-81
2023/05/31 11:19:31;;;;;;;4.03;2.00;;;27.90;49.10;;;;;;4950459;28;20268;-78
2023/05/31 11:22:06;;;;;;;5.50;2.25;;;27.80;49.10;;;;;;4958681;28;20055;-80
2023/05/31 11:24:52;;;;;;;3.10;2.08;;;28.30;48.80;;;;;;4981553;28;20127;-79
2023/05/31 11:27:22;;;;;;;5.50;2.42;;;29.00;47.80;;;;;;4970806;28;20018;-81
2023/05/31 11:29:51;;;;;;;9.75;2.22;;;28.10;49.00;;;;;;4966106;28;20035;-79
2023/05/31 11:32:21;;;;;;;2.20;2.00;;;28.20;48.40;;;;;;4976050;28;20098;-78
2023/05/31 11:34:57;;;;;;;3.80;2.15;;;28.20;49.00;;;;;;4975811;28;20491;-82
2023/05/31 11:37:27;;;;;;;4.68;2.28;;;28.30;47.90;;;;;;4972658;28;20665;-81
2023/05/31 11:39:59;;;;;;;12.23;2.90;;;27.90;49.40;;;;;;4973020;28;20018;-78
2023/05/31 11:42:29;;;;;;;5.25;2.28;;;28.50;47.20;;;;;;4969439;28;20439;-79
2023/05/31 11:44:56;;;;;;;5.45;2.45;;;28.50;47.50;;;;;;4933946;29;20050;-79
2023/05/31 11:47:36;;;;;;;4.65;2.20;;;29.00;47.30;;;;;;4938751;29;20032;-78
2023/05/31 11:50:02;;;;;;;4.10;2.67;;;28.40;47.20;;;;;;4945105;29;20312;-79
2023/05/31 11:52:28;;;;;;;2.45;2.25;;;29.00;47.50;;;;;;4943206;29;20071;-80
2023/05/31 11:54:57;;;;;;;9.63;2.35;;;29.30;47.30;;;;;;4943659;29;20035;-78
2023/05/31 11:57:23;;;;;;;13.13;2.40;;;28.90;47.20;;;;;;4934087;29;20033;-78
2023/05/31 11:59:49;;;;;;;3.60;1.90;;;28.30;48.30;;;;;;4917468;29;20398;-78
2023/05/31 12:02:15;;;;;;;4.47;2.40;;;28.30;48.40;;;;;;4932130;29;20123;-81
2023/05/31 12:04:42;;;;;;;2.25;2.05;;;28.10;47.90;;;;;;4956974;29;20016;-78
2023/05/31 12:07:11;;;;;;;5.82;2.38;;;29.40;47.00;;;;;;4934306;29;20023;-79
2023/05/31 12:09:36;;;;;;;5.97;2.63;;;30.70;44.30;;;;;;4933989;29;20034;-79
2023/05/31 12:12:05;;;;;;;12.38;2.70;;;30.20;44.40;;;;;;4931042;29;20083;-78
2023/05/31 12:14:32;;;;;;;5.90;2.28;;;30.20;45.10;;;;;;4936584;29;20088;-79
2023/05/31 12:17:03;;;;;;;4.03;2.30;;;30.20;45.80;;;;;;4920198;29;20043;-80
2023/05/31 12:19:29;;;;;;;3.28;2.35;;;30.70;45.00;;;;;;4919429;29;20035;-79
2023/05/31 12:21:55;;;;;;;6.88;2.00;;;30.90;44.40;;;;;;4916642;29;20032;-76
2023/05/31 12:24:20;;;;;;;9.38;2.38;;;31.10;45.00;;;;;;4936357;29;20094;-77
2023/05/31 12:26:51;;;;;;;9.82;3.00;;;29.80;46.10;;;;;;4954963;29;20240;-78
2023/05/31 12:29:17;;;;;;;2.95;1.92;;;30.00;46.80;;;;;;4959701;29;20020;-76
2023/05/31 12:31:43;;;;;;;5.22;2.55;;;31.30;45.80;;;;;;4957665;29;20215;-75
2023/05/31 12:34:10;;;;;;;3.47;2.35;;;32.30;45.20;;;;;;4926204;29;20335;-77
2023/05/31 12:36:49;;;;;;;4.85;1.70;;;32.20;42.20;;;;;;4929665;29;20023;-79
2023/05/31 12:39:19;;;;;;;6.22;2.50;;;31.80;43.10;;;;;;4942045;29;20035;-78
2023/05/31 12:41:46;;;;;;;3.60;2.00;;;;;;;;;;4940614;29;20102;-81
2023/05/31 12:44:13;;;;;;;3.15;1.95;;;29.30;44.40;;;;;;4956265;29;20343;-79
2023/05/31 12:46:44;;;;;;;2.47;2.10;;;29.60;45.40;;;;;;4959845;29;20028;-80
2023/05/31 12:49:32;;;;;;;3.17;2.75;;;29.90;46.10;;;;;;4962940;29;20030;-79
2023/05/31 12:51:59;;;;;;;3.42;2.55;;;30.10;45.90;;;;;;4961446;28;20027;-79
2023/05/31 12:54:26;;;;;;;3.67;2.15;;;30.20;45.20;;;;;;4961583;28;20102;-76
2023/05/31 12:56:53;;;;;;;3.78;2.28;;;31.40;44.50;;;;;;4962422;29;20019;-77
2023/05/31 12:59:19;;;;;;;4.50;2.20;;;31.40;43.60;;;;;;4962783;29;20311;-76
2023/05/31 13:01:45;;;;;;;2.88;2.20;;;31.80;43.50;;;;;;4963928;28;20037;-79
2023/05/31 13:04:12;;;;;;;6.40;1.92;;;31.70;43.00;;;;;;4964159;28;20113;-79
2023/05/31 13:06:39;;;;;;;4.30;2.08;;;31.00;43.30;;;;;;4957088;28;20312;-78
2023/05/31 13:09:06;;;;;;;3.17;1.80;;;31.30;44.30;;;;;;4944578;29;20016;-79
2023/05/31 13:11:39;;;;;;;5.45;2.25;;;30.50;44.80;;;;;;4950443;29;20317;-79
2023/05/31 13:14:10;;;;;;;9.18;2.15;;;30.70;46.10;;;;;;4960521;28;20020;-78
2023/05/31 13:16:37;;;;;;;7.68;2.33;;;31.30;45.40;;;;;;4957433;28;20597;-76